createdAt,value
2018-06-11T00:02:01.506Z,99.90
2018-06-11T00:04:43.370Z,99.90
2018-06-11T00:07:21.594Z,99.90
2018-06-11T00:10:10.632Z,99.90
2018-06-11T00:15:58.563Z,99.90
2018-06-11T00:19:06.903Z,99.90
2018-06-11T00:22:42.865Z,99.90
2018-06-11T00:25:25.842Z,99.90
2018-06-11T00:28:05.957Z,99.90
2018-06-11T00:30:53.705Z,99.90
2018-06-11T00:33:30.637Z,99.90
2018-06-11T00:36:02.944Z,99.90
2018-06-11T00:38:54.763Z,99.90
2018-06-11T00:42:07.448Z,99.90
2018-06-11T00:44:43.474Z,99.90
2018-06-11T00:47:20.656Z,99.90
2018-06-11T00:49:59.294Z,99.90
2018-06-11T00:52:35.753Z,99.90
2018-06-11T00:55:17.922Z,99.90
2018-06-11T01:04:00.858Z,99.90
2018-06-11T01:06:35.218Z,99.90
2018-06-11T01:09:09.589Z,99.90
2018-06-11T01:11:41.190Z,99.90
2018-06-11T01:14:23.188Z,99.90
2018-06-11T01:16:57.918Z,99.90
2018-06-11T01:19:34.262Z,99.90
2018-06-11T01:22:06.166Z,99.90
2018-06-11T01:24:44.783Z,99.90
2018-06-11T01:27:36.731Z,99.90
2018-06-11T01:30:19.692Z,99.90
2018-06-11T01:32:50.578Z,99.90
2018-06-11T01:35:27.570Z,99.90
2018-06-11T01:38:00.973Z,99.90
2018-06-11T01:40:59.978Z,99.90
2018-06-11T01:43:33.987Z,99.90
2018-06-11T01:46:13.667Z,99.90
2018-06-11T01:48:45.298Z,99.90
2018-06-11T01:51:21.750Z,99.90
2018-06-11T01:54:04.402Z,99.90
2018-06-11T01:56:38.494Z,99.90
2018-06-11T01:59:11.008Z,99.90
2018-06-11T02:01:46.348Z,99.90
2018-06-11T02:04:21.886Z,99.90
2018-06-11T02:06:58.626Z,99.90
2018-06-11T02:09:36.266Z,99.90
2018-06-11T02:12:11.184Z,99.90
2018-06-11T02:14:51.854Z,99.90
2018-06-11T02:17:35.162Z,99.90
2018-06-11T02:20:12.996Z,99.90
2018-06-11T02:22:47.286Z,99.90
2018-06-11T02:25:25.015Z,99.90
2018-06-11T02:28:06.390Z,99.90
2018-06-11T02:30:40.339Z,99.90
2018-06-11T02:33:19.957Z,99.90
2018-06-11T02:36:04.385Z,99.90
2018-06-11T02:38:35.099Z,99.90
2018-06-11T02:41:12.106Z,99.90
2018-06-11T02:43:52.343Z,99.90
2018-06-11T02:46:29.152Z,99.90
2018-06-11T02:49:00.574Z,99.90
2018-06-11T02:51:33.815Z,99.90
2018-06-11T02:54:08.351Z,99.90
2018-06-11T02:56:49.113Z,99.90
2018-06-11T02:59:22.091Z,99.90
2018-06-11T03:05:09.797Z,99.90
2018-06-11T03:07:59.887Z,99.90
2018-06-11T03:10:38.920Z,99.90
2018-06-11T03:13:13.338Z,99.90
2018-06-11T03:15:53.290Z,99.90
2018-06-11T03:18:27.604Z,99.90
2018-06-11T03:21:00.266Z,99.90
2018-06-11T03:26:09.030Z,99.90
2018-06-11T03:28:53.690Z,99.90
2018-06-11T03:31:24.899Z,99.90
2018-06-11T03:34:05.190Z,99.90
2018-06-11T03:36:41.458Z,99.90
2018-06-11T03:39:18.841Z,99.90
2018-06-11T03:42:03.315Z,99.90
2018-06-11T03:44:37.006Z,99.90
2018-06-11T03:47:09.979Z,99.90
2018-06-11T03:49:42.463Z,99.90
2018-06-11T03:52:18.411Z,99.90
2018-06-11T03:54:56.647Z,99.90
2018-06-11T03:57:28.391Z,99.90
2018-06-11T04:00:00.198Z,99.90
2018-06-11T04:02:40.199Z,99.90
2018-06-11T04:05:17.301Z,99.90
2018-06-11T04:08:00.803Z,99.90
2018-06-11T04:10:34.603Z,99.90
2018-06-11T04:13:06.979Z,99.90
2018-06-11T04:15:39.726Z,99.90
2018-06-11T04:18:17.271Z,99.90
2018-06-11T04:20:50.788Z,99.90
2018-06-11T04:23:25.122Z,99.90
2018-06-11T04:25:56.182Z,99.90
2018-06-11T04:28:26.858Z,99.90
2018-06-11T04:31:03.910Z,99.90
2018-06-11T04:33:38.079Z,99.90
2018-06-11T04:36:19.464Z,99.90
2018-06-11T04:39:04.227Z,99.90
2018-06-11T04:41:37.854Z,99.90
2018-06-11T04:44:14.534Z,99.90
2018-06-11T04:46:46.627Z,99.90
2018-06-11T04:49:38.293Z,99.90
2018-06-11T04:52:19.122Z,99.90
2018-06-11T04:54:55.503Z,99.90
2018-06-11T04:57:31.770Z,99.90
2018-06-11T05:00:05.510Z,99.90
2018-06-11T05:02:39.086Z,99.90
2018-06-11T05:05:11.920Z,99.90
2018-06-11T05:07:49.530Z,99.90
2018-06-11T05:10:28.200Z,99.90
2018-06-11T05:13:07.148Z,99.90
2018-06-11T05:15:43.254Z,99.90
2018-06-11T05:21:17.658Z,99.90
2018-06-11T05:24:01.297Z,99.90
2018-06-11T05:26:37.524Z,99.90
2018-06-11T05:29:11.537Z,99.90
2018-06-11T05:31:42.286Z,99.90
2018-06-11T05:34:19.053Z,99.90
2018-06-11T05:36:55.583Z,99.90
2018-06-11T05:42:53.658Z,99.90
2018-06-11T05:45:31.547Z,99.90
2018-06-11T05:48:06.394Z,99.90
2018-06-11T05:50:40.577Z,98.30
2018-06-11T05:53:15.556Z,95.20
2018-06-11T05:55:50.649Z,94.00
2018-06-11T05:58:24.911Z,88.90
2018-06-11T06:01:01.585Z,86.90
2018-06-11T06:03:39.574Z,83.80
2018-06-11T06:08:58.628Z,91.60
2018-06-11T06:11:43.179Z,93.90
2018-06-11T06:14:27.567Z,94.60
2018-06-11T06:17:03.147Z,95.70
2018-06-11T06:19:47.598Z,96.00
2018-06-11T06:22:30.719Z,96.60
2018-06-11T06:25:02.651Z,97.40
2018-06-11T06:30:29.730Z,97.00
2018-06-11T06:33:13.772Z,97.70
2018-06-11T06:35:47.830Z,97.00
2018-06-11T06:38:21.197Z,96.80
2018-06-11T06:40:53.806Z,96.80
2018-06-11T06:43:24.688Z,96.70
2018-06-11T06:48:33.371Z,98.10
2018-06-11T06:51:11.471Z,97.50
2018-06-11T06:53:41.996Z,97.80
2018-06-11T06:56:24.482Z,97.40
2018-06-11T06:58:55.038Z,97.50
2018-06-11T07:01:29.246Z,97.30
2018-06-11T07:04:15.657Z,97.90
2018-06-11T07:06:47.518Z,98.60
2018-06-11T07:09:25.486Z,98.70
2018-06-11T07:12:02.094Z,98.60
2018-06-11T07:14:33.870Z,97.70
2018-06-11T07:17:06.498Z,97.70
2018-06-11T07:19:39.728Z,98.00
2018-06-11T07:25:20.519Z,95.70
2018-06-11T07:27:58.030Z,93.80
2018-06-11T07:30:50.354Z,90.40
2018-06-11T07:33:28.763Z,90.30
2018-06-11T07:36:00.320Z,84.80
2018-06-11T07:38:31.414Z,85.00
2018-06-11T07:41:15.510Z,80.50
2018-06-11T07:43:58.260Z,78.10
2018-06-11T07:46:43.350Z,73.60
2018-06-11T07:49:18.366Z,65.70
2018-06-11T07:51:50.564Z,58.90
2018-06-11T07:54:21.919Z,56.60
2018-06-11T07:56:56.582Z,57.20
2018-06-11T07:59:30.926Z,58.40
2018-06-11T08:02:01.784Z,58.30
2018-06-11T08:04:35.874Z,59.50
2018-06-11T08:07:06.670Z,60.60
2018-06-11T08:09:49.168Z,67.90
2018-06-11T08:12:26.366Z,75.00
2018-06-11T08:15:01.299Z,77.40
2018-06-11T08:17:35.340Z,78.20
2018-06-11T08:20:12.322Z,80.10
2018-06-11T08:22:48.464Z,78.40
2018-06-11T08:25:19.059Z,78.70
2018-06-11T08:27:51.190Z,77.50
2018-06-11T08:30:29.846Z,75.20
2018-06-11T08:35:43.290Z,71.40
2018-06-11T08:38:24.604Z,68.80
2018-06-11T08:40:57.919Z,69.30
2018-06-11T08:43:33.888Z,73.00
2018-06-11T08:46:06.411Z,75.40
2018-06-11T08:48:40.625Z,74.70
2018-06-11T08:51:12.883Z,71.50
2018-06-11T08:53:54.815Z,70.60
2018-06-11T08:56:48.189Z,70.70
2018-06-11T08:59:24.245Z,69.90
2018-06-11T09:01:56.175Z,69.90
2018-06-11T09:04:27.358Z,68.30
2018-06-11T09:06:58.672Z,66.90
2018-06-11T09:09:29.236Z,64.10
2018-06-11T09:12:01.069Z,66.50
2018-06-11T09:14:33.659Z,64.40
2018-06-11T09:17:05.513Z,62.70
2018-06-11T09:19:39.563Z,62.70
2018-06-11T09:22:10.456Z,66.10
2018-06-11T09:24:44.390Z,66.70
2018-06-11T09:27:18.627Z,64.80
2018-06-11T09:29:49.359Z,65.30
2018-06-11T09:32:19.806Z,68.60
2018-06-11T09:34:51.834Z,72.70
2018-06-11T09:37:24.527Z,76.50
2018-06-11T09:39:55.024Z,79.40
2018-06-11T09:42:31.689Z,78.90
2018-06-11T09:45:12.131Z,78.80
2018-06-11T09:47:58.943Z,79.30
2018-06-11T09:50:35.154Z,79.40
2018-06-11T09:53:06.311Z,79.50
2018-06-11T09:55:42.672Z,79.50
2018-06-11T09:58:13.422Z,78.40
2018-06-11T10:00:49.982Z,78.90
2018-06-11T10:03:25.766Z,79.90
2018-06-11T10:05:58.185Z,78.70
2018-06-11T10:08:46.225Z,79.20
2018-06-11T10:11:28.425Z,75.50
2018-06-11T10:14:05.280Z,74.10
2018-06-11T10:16:43.922Z,73.40
2018-06-11T10:19:21.066Z,74.80
2018-06-11T10:24:25.250Z,75.10
2018-06-11T10:26:57.935Z,76.20
2018-06-11T10:29:33.947Z,75.40
2018-06-11T10:32:04.825Z,76.00
2018-06-11T10:34:38.266Z,75.50
2018-06-11T10:37:09.970Z,76.80
2018-06-11T10:39:40.997Z,77.60
2018-06-11T10:42:15.607Z,78.20
2018-06-11T10:44:46.022Z,78.70
2018-06-11T10:47:16.927Z,79.10
2018-06-11T10:50:07.275Z,77.70
2018-06-11T10:52:49.927Z,76.70
2018-06-11T10:55:29.961Z,77.20
2018-06-11T10:58:07.065Z,76.40
2018-06-11T11:00:45.742Z,78.90
2018-06-11T11:03:16.498Z,81.10
2018-06-11T11:06:09.225Z,81.70
2018-06-11T11:08:45.225Z,82.50
2018-06-11T11:11:21.546Z,83.10
2018-06-11T11:13:54.350Z,85.10
2018-06-11T11:16:26.901Z,86.70
2018-06-11T11:19:08.440Z,87.70
2018-06-11T11:21:39.019Z,89.30
2018-06-11T11:24:17.210Z,90.10
2018-06-11T11:26:49.191Z,88.30
2018-06-11T11:29:26.210Z,88.30
2018-06-11T11:32:00.999Z,89.00
2018-06-11T11:34:32.480Z,90.00
2018-06-11T11:37:11.554Z,89.40
2018-06-11T11:39:47.803Z,88.60
2018-06-11T11:42:22.063Z,89.50
2018-06-11T11:44:55.902Z,89.90
2018-06-11T11:47:28.446Z,90.20
2018-06-11T11:49:59.089Z,91.10
2018-06-11T11:52:29.714Z,91.90
2018-06-11T11:55:01.159Z,93.60
2018-06-11T11:57:33.778Z,95.40
2018-06-11T12:00:20.968Z,97.40
2018-06-11T12:03:04.343Z,98.10
2018-06-11T12:05:41.614Z,99.90
2018-06-11T12:08:18.059Z,99.90
2018-06-11T12:10:54.337Z,99.90
2018-06-11T12:13:32.066Z,99.90
2018-06-11T12:16:04.265Z,99.90
2018-06-11T12:18:44.410Z,99.90
2018-06-11T12:21:16.102Z,99.90
2018-06-11T12:23:54.868Z,99.90
2018-06-11T12:26:28.830Z,99.90
2018-06-11T12:29:18.529Z,99.90
2018-06-11T12:31:55.077Z,99.90
2018-06-11T12:34:35.585Z,99.90
2018-06-11T12:37:06.410Z,99.90
2018-06-11T12:39:42.443Z,99.90
2018-06-11T12:42:26.119Z,99.90
2018-06-11T12:45:00.588Z,99.90
2018-06-11T12:47:33.460Z,99.90
2018-06-11T12:50:10.303Z,99.90
2018-06-11T12:52:41.776Z,99.90
2018-06-11T12:57:50.343Z,99.40
2018-06-11T13:00:21.879Z,99.90
2018-06-11T13:03:02.386Z,98.00
2018-06-11T13:05:33.472Z,98.10
2018-06-11T13:08:16.437Z,97.50
2018-06-11T13:10:59.356Z,97.20
2018-06-11T13:13:30.480Z,97.50
2018-06-11T13:16:06.970Z,96.50
2018-06-11T13:18:39.367Z,96.80
2018-06-11T13:21:14.810Z,98.20
2018-06-11T13:23:56.893Z,97.30
2018-06-11T13:26:39.941Z,97.60
2018-06-11T13:32:16.511Z,97.10
2018-06-11T13:34:58.857Z,96.90
2018-06-11T13:37:37.629Z,97.60
2018-06-11T13:40:15.108Z,97.40
2018-06-11T13:43:11.175Z,98.20
2018-06-11T13:50:20.059Z,99.20
2018-06-11T13:53:13.219Z,99.90
2018-06-11T13:55:46.226Z,99.90
2018-06-11T13:58:31.043Z,99.90
2018-06-11T14:01:40.406Z,99.90
2018-06-11T14:10:10.788Z,99.90
2018-06-11T14:13:02.757Z,99.90
2018-06-11T14:16:38.163Z,99.90
2018-06-11T14:19:37.940Z,99.90
2018-06-11T14:23:09.608Z,99.90
2018-06-11T14:25:46.126Z,99.90
2018-06-11T14:31:52.599Z,99.90
2018-06-11T14:35:12.117Z,99.90
2018-06-11T14:37:48.117Z,99.90
2018-06-11T14:40:25.340Z,99.90
2018-06-11T14:43:01.668Z,99.90
2018-06-11T14:47:22.042Z,99.90
2018-06-11T14:50:07.635Z,99.90
2018-06-11T14:52:42.797Z,99.90
2018-06-11T14:58:26.888Z,99.90
2018-06-11T15:01:04.850Z,99.90
2018-06-11T15:03:38.634Z,99.90
2018-06-11T15:06:30.422Z,99.90
2018-06-11T15:09:03.127Z,99.90
2018-06-11T15:12:37.798Z,99.90
2018-06-11T15:15:16.590Z,99.90
2018-06-11T15:17:54.991Z,99.90
2018-06-11T15:20:27.742Z,99.90
2018-06-11T15:23:06.594Z,99.90
2018-06-11T15:25:53.695Z,99.90
2018-06-11T15:28:43.059Z,99.90
2018-06-11T15:36:24.742Z,99.90
2018-06-11T15:39:08.596Z,99.90
2018-06-11T15:41:52.826Z,99.90
2018-06-11T15:44:34.415Z,99.90
2018-06-11T15:47:10.281Z,99.90
2018-06-11T15:49:44.643Z,99.90
2018-06-11T15:52:31.443Z,99.90
2018-06-11T15:55:51.107Z,98.60
2018-06-11T15:58:31.123Z,95.40
2018-06-11T16:01:02.566Z,95.10
2018-06-11T16:04:09.387Z,95.60
2018-06-11T16:06:54.987Z,95.40
2018-06-11T16:09:27.778Z,96.70
2018-06-11T16:11:58.373Z,98.40
2018-06-11T16:14:53.200Z,98.60
2018-06-11T16:17:36.205Z,97.60
2018-06-11T16:20:12.747Z,98.10
2018-06-11T16:22:53.218Z,99.10
2018-06-11T16:25:31.029Z,99.00
2018-06-11T16:28:14.385Z,99.10
2018-06-11T16:30:49.198Z,99.40
2018-06-11T16:33:31.070Z,99.10
2018-06-11T16:36:20.773Z,98.80
2018-06-11T16:38:59.738Z,98.90
2018-06-11T16:41:45.804Z,98.40
2018-06-11T16:44:28.454Z,97.00
2018-06-11T16:47:06.306Z,96.00
2018-06-11T16:49:43.120Z,93.70
2018-06-11T16:52:30.326Z,91.70
2018-06-11T16:57:33.858Z,92.70
2018-06-11T17:00:11.622Z,93.20
2018-06-11T17:02:55.524Z,93.20
2018-06-11T17:05:38.113Z,92.40
2018-06-11T17:08:12.310Z,91.30
2018-06-11T17:10:49.178Z,91.50
2018-06-11T17:13:30.868Z,88.60
2018-06-11T17:16:08.692Z,86.70
2018-06-11T17:21:11.484Z,83.70
2018-06-11T17:24:22.160Z,79.20
2018-06-11T17:27:04.773Z,87.00
2018-06-11T17:33:11.491Z,88.30
2018-06-11T17:39:03.900Z,89.40
2018-06-11T17:42:17.463Z,90.70
2018-06-11T17:45:00.133Z,91.40
2018-06-11T17:47:34.741Z,92.20
2018-06-11T17:50:25.487Z,94.00
2018-06-11T17:53:01.906Z,95.40
2018-06-11T17:55:46.072Z,96.30
2018-06-11T17:58:31.474Z,96.80
2018-06-11T18:01:22.624Z,97.50
2018-06-11T18:04:01.873Z,97.10
2018-06-11T18:09:08.361Z,97.70
2018-06-11T18:11:55.046Z,96.90
2018-06-11T18:15:04.570Z,93.60
2018-06-11T18:17:54.594Z,92.40
2018-06-11T20:11:36.979Z,99.90
2018-06-11T20:14:13.625Z,99.90
2018-06-11T20:16:52.326Z,99.90
2018-06-11T20:19:27.584Z,99.90
2018-06-11T20:22:08.949Z,99.90
2018-06-11T20:24:40.619Z,99.90
2018-06-11T20:27:17.526Z,99.90
2018-06-11T20:29:53.281Z,99.90
2018-06-11T20:32:26.616Z,99.90
2018-06-11T20:35:04.864Z,99.90
2018-06-11T20:37:39.901Z,99.90
2018-06-11T20:40:10.744Z,99.90
2018-06-11T20:42:49.581Z,99.90
2018-06-11T20:45:23.714Z,99.90
2018-06-11T20:48:09.826Z,99.90
2018-06-11T20:50:46.930Z,99.90
2018-06-11T20:53:23.029Z,99.90
2018-06-11T20:55:57.103Z,99.90
2018-06-11T20:58:34.329Z,99.90
2018-06-11T21:01:12.011Z,99.90
2018-06-11T21:03:43.819Z,99.90
2018-06-11T21:06:22.175Z,99.90
2018-06-11T21:08:56.322Z,99.90
2018-06-11T21:11:28.125Z,99.90
2018-06-11T21:13:59.591Z,99.90
2018-06-11T21:16:30.537Z,99.90
2018-06-11T21:19:04.799Z,99.90
2018-06-11T21:21:43.641Z,99.90
2018-06-11T21:24:18.339Z,99.90
2018-06-11T21:29:55.128Z,99.90
2018-06-11T21:32:29.328Z,99.90
2018-06-11T21:35:11.456Z,99.90
2018-06-11T21:37:49.450Z,99.90
2018-06-11T21:40:20.638Z,99.90
2018-06-11T21:42:54.603Z,99.90
2018-06-11T21:45:29.020Z,99.90
2018-06-11T21:48:07.945Z,99.90
2018-06-11T21:50:48.348Z,99.90
2018-06-11T21:53:19.236Z,99.90
2018-06-11T21:55:56.825Z,99.90
2018-06-11T21:58:39.529Z,99.90
2018-06-11T22:01:24.903Z,99.90
2018-06-11T22:04:02.079Z,99.90
2018-06-11T22:06:39.725Z,99.90
2018-06-11T22:09:12.079Z,99.90
2018-06-11T22:11:49.336Z,99.90
2018-06-11T22:14:26.383Z,99.90
2018-06-11T22:17:12.612Z,99.90
2018-06-11T22:19:44.528Z,99.90
2018-06-11T22:22:32.017Z,99.90
2018-06-11T22:25:09.715Z,99.90
2018-06-11T22:27:46.319Z,99.90
2018-06-11T22:30:27.800Z,99.90
2018-06-11T22:33:04.371Z,99.90
2018-06-11T22:35:40.506Z,99.90
2018-06-11T22:43:22.207Z,99.90
2018-06-11T22:46:00.137Z,99.90
2018-06-11T22:48:33.210Z,99.90
2018-06-11T22:53:50.492Z,99.90
2018-06-11T22:56:33.405Z,99.90
2018-06-11T22:59:03.989Z,99.90
2018-06-11T23:01:46.598Z,99.90
2018-06-11T23:04:20.685Z,99.90
2018-06-11T23:06:57.101Z,99.90
2018-06-11T23:09:31.461Z,99.90
2018-06-11T23:12:08.855Z,99.90
2018-06-11T23:14:51.883Z,99.90
2018-06-11T23:17:26.558Z,99.90
2018-06-11T23:19:57.006Z,99.90
2018-06-11T23:22:35.197Z,99.90
2018-06-11T23:25:05.567Z,99.90
2018-06-11T23:27:36.063Z,99.90
2018-06-11T23:30:10.612Z,99.90
2018-06-11T23:32:50.631Z,99.90
2018-06-11T23:35:29.178Z,99.90
2018-06-11T23:38:03.256Z,99.90
2018-06-11T23:40:34.874Z,99.90
2018-06-11T23:43:11.591Z,99.90
2018-06-11T23:45:46.955Z,99.90
2018-06-11T23:48:28.069Z,99.90
2018-06-11T23:51:10.239Z,99.90
2018-06-11T23:53:42.088Z,99.90
2018-06-11T23:56:14.593Z,99.90
2018-06-11T23:58:45.186Z,99.90
